This is the latest recevied weather packets stored in our database for station/object N5SRF. If no packets are shown the sender has not sent any weather packets the latest 10 day(s).
| Time | Temp. | Humidity | Pressure | Rain* | Wind** | Luminosity | Snow |
|---|---|---|---|---|---|---|---|
| 1777490438 | 28.89° C | 82% | 1014.5 hPa | 0 mm | - | 323 W/m² | - |
| 1777490134 | 29.44° C | 79% | 1014.7 hPa | 0 mm | - | 461 W/m² | - |
| 1777489832 | 28.89° C | 81% | 1015.2 hPa | 0 mm | - | 491 W/m² | - |
| 1777489528 | 28.89° C | 81% | 1015.4 hPa | 0 mm | - | 563 W/m² | - |
| 1777489225 | 28.33° C | 81% | 1015.7 hPa | 0 mm | - | 330 W/m² | - |
| 1777488922 | 28.33° C | 82% | 1015.9 hPa | 0 mm | - | 250 W/m² | - |
| 1777488619 | 28.33° C | 81% | 1016 hPa | 0 mm | - | 231 W/m² | - |
| 1777488317 | 28.89° C | 79% | 1015.9 hPa | 0 mm | - | 274 W/m² | - |
| 1777488015 | 28.89° C | 81% | 1016 hPa | 0 mm | - | 315 W/m² | - |
| 1777487713 | 28.89° C | 80% | 1016 hPa | 0 mm | - | 364 W/m² | - |
| 1777487410 | 28.33° C | 82% | 1016.2 hPa | 0 mm | - | 434 W/m² | - |
| 1777487107 | 27.78° C | 84% | 1016.4 hPa | 0 mm | - | 272 W/m² | - |
| 1777486803 | 27.78° C | 83% | 1016.4 hPa | 0 mm | - | 158 W/m² | - |
| 1777486501 | 28.33° C | 82% | 1016.8 hPa | 0 mm | - | 154 W/m² | - |
| 1777486198 | 27.78° C | 83% | 1016.6 hPa | 0 mm | - | 224 W/m² | - |
| 1777485896 | 28.33° C | 82% | 1017 hPa | 0 mm | - | 242 W/m² | - |
| 1777485591 | 27.78° C | 83% | 1017 hPa | 0 mm | - | 195 W/m² | - |
| 1777485287 | 27.78° C | 83% | 1016.9 hPa | 0 mm | - | 170 W/m² | - |
| 1777484983 | 27.78° C | 81% | 1017.1 hPa | 0 mm | - | 130 W/m² | - |
| 1777484681 | 27.78° C | 82% | 1017 hPa | 0 mm | - | 244 W/m² | - |
| 1777484377 | 28.33° C | 80% | 1017.2 hPa | 0 mm | - | 215 W/m² | - |
| 1777484073 | 28.89° C | 80% | 1017.3 hPa | 0 mm | - | 316 W/m² | - |
| 1777483769 | 28.89° C | 81% | 1017.1 hPa | 0 mm | - | 330 W/m² | - |
| 1777483466 | 28.33° C | 82% | 1017.1 hPa | 0 mm | - | 325 W/m² | - |
| 1777483160 | 28.33° C | 82% | 1017.2 hPa | 0 mm | - | 263 W/m² | - |
* Rain latest hour (hover to see other rain measurements)
** Current wind speed in m/s (hover to see current wind gust speed)